Western Flyer — WDD2611 — position and weather

sailwx.info

Track history (hours):
 
Tides and Currents Weather Stations Pressure Air Temp Water Temp Dewpoint Dewpoint Depression Visibility Wind Speed Wind Dir Waves Ship Positions

Western Flyer

Owner: MONTEREY BAY AQUARIUM RESEARCH INSTITUTE, MOSS LANDING, CA. More information available from US FCC via Universal Licensing System and Coast Guard Vessel Documentation Center.

Last reported at 2018-Jun-22 19:00 UTC. Time now 2018-Jun-22 18:58 UTC.
Position N 36°42' W 122°03'.

Length 34 m; draft 4.5 m.

Type: Dredging. MMSI: 367766000.

Date/timePositionNaut miles runAvg speedWind from/ knotsBaromVisibWave heightAir tempDewpointWater temp
2018-Jun-22 19:00N 36°42' W 122°03'0 0.2
2018-Jun-22 18:30N 36°42' W 122°03'0 0.1
2018-Jun-22 18:00N 36°42' W 122°03'0 0.0
2018-Jun-22 17:30N 36°42' W 122°03'0 0.0
2018-Jun-22 17:00N 36°42' W 122°03'0 0.0
2018-Jun-22 16:30N 36°42' W 122°03'0 0.0
2018-Jun-22 16:00N 36°42' W 122°03'0 0.0
2018-Jun-22 15:31N 36°42' W 122°03'0 0.0
2018-Jun-22 15:00N 36°42' W 122°03'0 0.0
2018-Jun-22 14:30N 36°42' W 122°03'0 0.2
2018-Jun-22 14:00N 36°42' W 122°03'0 0.0
2018-Jun-22 13:30N 36°42' W 122°03'0 0.2
2018-Jun-22 13:01N 36°42' W 122°03'0 0.4
2018-Jun-22 12:30N 36°42' W 122°03'2 3.0
2018-Jun-22 12:00N 36°41' W 122°01'2 3.7
2018-Jun-22 11:30N 36°43' W 121°60'3 5.3
2018-Jun-22 11:00N 36°41' W 121°57'0 0.8
2018-Jun-22 10:30N 36°41' W 121°56'1 2.1
2018-Jun-22 10:00N 36°41' W 121°58'1 2.2
2018-Jun-22 09:28N 36°41' W 121°59'1 2.5
2018-Jun-22 09:00N 36°42' W 122°00'2 4.6
2018-Jun-22 08:29N 36°42' W 122°03'1 2.0
2018-Jun-22 08:00N 36°42' W 122°05'2 3.7
2018-Jun-22 07:30N 36°43' W 122°07'2 3.2
2018-Jun-22 07:00N 36°43' W 122°09'1 1.9
2018-Jun-22 06:30N 36°44' W 122°08'1 1.2
2018-Jun-22 06:00N 36°44' W 122°07'1 1.1
2018-Jun-22 05:30N 36°43' W 122°06'1 1.5
2018-Jun-22 05:00N 36°43' W 122°06'1 1.4
2018-Jun-22 04:29N 36°43' W 122°05'1 1.3
2018-Jun-22 03:59N 36°42' W 122°04'1 1.1
2018-Jun-22 03:30N 36°42' W 122°04'1 1.2
2018-Jun-22 03:00N 36°42' W 122°03'2 4.7
2018-Jun-22 02:30N 36°41' W 122°00'4 6.3
2018-Jun-22 01:53N 36°44' W 121°57'2 5.6
2018-Jun-22 01:27N 36°46' W 121°56'0 0.8
2018-Jun-22 00:56N 36°47' W 121°55'1 1.9
2018-Jun-22 00:30N 36°46' W 121°54'3 6.1
2018-Jun-21 23:59N 36°47' W 121°51'3 4.9
2018-Jun-21 23:23N 36°48' W 121°47'0 0.0
2018-Jun-21 22:52N 36°48' W 121°47'0 0.0
2018-Jun-21 22:26N 36°48' W 121°47'0 0.0
2018-Jun-21 21:54N 36°48' W 121°47'0 0.0
2018-Jun-21 21:24N 36°48' W 121°47'0 0.0
2018-Jun-21 20:55N 36°48' W 121°47'0 0.0
2018-Jun-21 20:27N 36°48' W 121°47'0 0.0
2018-Jun-21 19:58N 36°48' W 121°47'0 0.0
2018-Jun-21 19:29N 36°48' W 121°47'0 0.0
2018-Jun-21 18:59N 36°48' W 121°47'0 0.0
2018-Jun-21 18:27N 36°48' W 121°47'0 0.0
2018-Jun-21 18:00N 36°48' W 121°47'0 0.0
2018-Jun-21 17:28N 36°48' W 121°47'0 0.0
2018-Jun-21 16:57N 36°48' W 121°47'0 0.0
2018-Jun-21 16:27N 36°48' W 121°47'0 0.0
2018-Jun-21 15:56N 36°48' W 121°47'0 0.0
2018-Jun-21 15:27N 36°48' W 121°47'0 0.0
2018-Jun-21 14:58N 36°48' W 121°47'0 0.0
2018-Jun-21 14:26N 36°48' W 121°47'0 0.0
2018-Jun-21 14:00N 36°48' W 121°47'0 0.0
2018-Jun-21 13:24N 36°48' W 121°47'0 0.0
2018-Jun-21 12:47N 36°48' W 121°47'0 0.0
2018-Jun-21 12:26N 36°48' W 121°47'0 0.0
2018-Jun-21 11:58N 36°48' W 121°47'0 0.0
2018-Jun-21 11:27N 36°48' W 121°47'0 0.0
2018-Jun-21 10:56N 36°48' W 121°47'0 0.0
2018-Jun-21 10:25N 36°48' W 121°47'0 0.0
2018-Jun-21 09:59N 36°48' W 121°47'0 0.0
2018-Jun-21 09:27N 36°48' W 121°47'0 0.0
2018-Jun-21 08:50N 36°48' W 121°47'0 0.0
2018-Jun-21 08:30N 36°48' W 121°47'0 0.0
2018-Jun-21 07:59N 36°48' W 121°47'0 0.0
2018-Jun-21 07:29N 36°48' W 121°47'0 0.0
2018-Jun-21 06:51N 36°48' W 121°47'0 0.0
2018-Jun-21 06:28N 36°48' W 121°47'0 0.0
2018-Jun-21 05:55N 36°48' W 121°47'0 0.0
2018-Jun-21 05:30N 36°48' W 121°47'0 0.0
2018-Jun-21 04:58N 36°48' W 121°47'0 0.0
2018-Jun-21 04:30N 36°48' W 121°47'0 0.0
2018-Jun-21 03:57N 36°48' W 121°47'0 0.0
2018-Jun-21 03:20N 36°48' W 121°47'0 0.0
2018-Jun-21 03:00N 36°48' W 121°47'0 0.0
2018-Jun-21 02:25N 36°48' W 121°47'0 0.0
2018-Jun-21 01:59N 36°48' W 121°47'0 0.0
2018-Jun-21 01:26N 36°48' W 121°47'0 0.0
2018-Jun-21 01:00N 36°48' W 121°47'0 0.0
2018-Jun-21 00:27N 36°48' W 121°47'0 0.0
2018-Jun-20 23:59N 36°48' W 121°47'0 0.0
2018-Jun-20 23:30N 36°48' W 121°47'0 0.0
2018-Jun-20 22:51N 36°48' W 121°47'0 0.0
2018-Jun-20 22:30N 36°48' W 121°47'0 0.0
2018-Jun-20 21:56N 36°48' W 121°47'0 0.0
2018-Jun-20 21:30N 36°48' W 121°47'0 0.0
2018-Jun-20 20:59N 36°48' W 121°47'0 0.0
2018-Jun-20 20:28N 36°48' W 121°47'0 0.0
2018-Jun-20 19:56N 36°48' W 121°47'0 0.0
2018-Jun-20 19:30N 36°48' W 121°47'0 0.0
2018-Jun-20 18:59N 36°48' W 121°47'0 0.0
2018-Jun-20 18:28N 36°48' W 121°47'0 0.0
2018-Jun-20 17:51N 36°48' W 121°47'0 0.0
2018-Jun-20 17:25N 36°48' W 121°47'0 0.0
2018-Jun-20 17:00N 36°48' W 121°47'0 0.0
2018-Jun-20 16:28N 36°48' W 121°47'0 0.0
2018-Jun-20 15:57N 36°48' W 121°47'0 0.0
2018-Jun-20 15:30N 36°48' W 121°47'0 0.0
2018-Jun-20 14:55N 36°48' W 121°47'0 0.0
2018-Jun-20 14:28N 36°48' W 121°47'0 0.0
2018-Jun-20 13:45N 36°48' W 121°47'0 0.0
2018-Jun-20 13:29N 36°48' W 121°47'0 0.0
2018-Jun-20 12:58N 36°48' W 121°47'0 0.0
2018-Jun-20 12:23N 36°48' W 121°47'0 0.0
2018-Jun-20 11:53N 36°48' W 121°47'0 0.0
2018-Jun-20 11:25N 36°48' W 121°47'0 0.0
2018-Jun-20 10:56N 36°48' W 121°47'0 0.0
2018-Jun-20 10:27N 36°48' W 121°47'0 0.0
2018-Jun-20 09:51N 36°48' W 121°47'0 0.0
2018-Jun-20 09:31N 36°48' W 121°47'0 0.0
2018-Jun-20 09:00N 36°48' W 121°47'0 0.0
2018-Jun-20 08:29N 36°48' W 121°47'0 0.0
2018-Jun-20 07:57N 36°48' W 121°47'0 0.0
2018-Jun-20 07:22N 36°48' W 121°47'0 0.0
2018-Jun-20 07:00N 36°48' W 121°47'0 0.0
2018-Jun-20 06:30N 36°48' W 121°47'0 0.0
2018-Jun-20 05:58N 36°48' W 121°47'0 0.0
2018-Jun-20 05:26N 36°48' W 121°47'0 0.0
2018-Jun-20 05:00N 36°48' W 121°47'0 0.0
2018-Jun-20 04:30N 36°48' W 121°47'0 0.0
2018-Jun-20 03:59N 36°48' W 121°47'0 0.0
2018-Jun-20 03:26N 36°48' W 121°47'0 0.0
2018-Jun-20 02:56N 36°48' W 121°47'0 0.0
2018-Jun-20 02:30N 36°48' W 121°47'0 0.0
2018-Jun-20 01:59N 36°48' W 121°47'0 0.0
2018-Jun-20 01:29N 36°48' W 121°47'0 0.0
2018-Jun-20 00:56N 36°48' W 121°47'0 0.0
2018-Jun-20 00:30N 36°48' W 121°47'0 0.0
2018-Jun-19 23:59N 36°48' W 121°47'0 0.0
2018-Jun-19 23:27N 36°48' W 121°47'0 0.0
2018-Jun-19 22:56N 36°48' W 121°47'0 0.0
2018-Jun-19 22:28N 36°48' W 121°47'0 0.0
2018-Jun-19 21:56N 36°48' W 121°47'0 0.0
2018-Jun-19 21:22N 36°48' W 121°47'0 0.0
2018-Jun-19 21:00N 36°48' W 121°47'0 0.0
2018-Jun-19 19:48N 36°48' W 121°47'0 0.0
2018-Jun-19 19:26N 36°48' W 121°47'0 0.0
2018-Jun-19 18:54N 36°48' W 121°47'0 0.0
2018-Jun-19 18:27N 36°48' W 121°47'0 0.0
2018-Jun-19 17:58N 36°48' W 121°47'0 0.0
2018-Jun-19 17:30N 36°48' W 121°47'0 0.0
2018-Jun-19 16:58N 36°48' W 121°47'0 0.0
2018-Jun-19 16:26N 36°48' W 121°47'0 0.0
2018-Jun-19 16:00N 36°48' W 121°47'0 0.0
2018-Jun-19 15:28N 36°48' W 121°47'0 0.0
2018-Jun-19 14:56N 36°48' W 121°47'0 0.0
2018-Jun-19 14:25N 36°48' W 121°47'0 0.0
2018-Jun-19 14:00N 36°48' W 121°47'0 0.0
2018-Jun-19 13:25N 36°48' W 121°47'0 0.0
2018-Jun-19 13:00N 36°48' W 121°47'0 0.0
2018-Jun-19 12:28N 36°48' W 121°47'0 0.0
2018-Jun-19 11:51N 36°48' W 121°47'0 0.0
2018-Jun-19 11:27N 36°48' W 121°47'0 0.0
2018-Jun-19 10:59N 36°48' W 121°47'0 0.0
2018-Jun-19 10:27N 36°48' W 121°47'0 0.0
2018-Jun-19 09:56N 36°48' W 121°47'0 0.0
2018-Jun-19 09:16N 36°48' W 121°47'0 0.0
2018-Jun-19 08:56N 36°48' W 121°47'0 0.0
2018-Jun-19 08:27N 36°48' W 121°47'0 0.0
2018-Jun-19 08:00N 36°48' W 121°47'0 0.0
2018-Jun-19 07:29N 36°48' W 121°47'0 0.0
2018-Jun-19 06:53N 36°48' W 121°47'0 0.0
2018-Jun-19 06:22N 36°48' W 121°47'0 0.0
2018-Jun-19 05:56N 36°48' W 121°47'0 0.0
2018-Jun-19 05:29N 36°48' W 121°47'0 0.0
2018-Jun-19 04:58N 36°48' W 121°47'0 0.0
2018-Jun-19 04:28N 36°48' W 121°47'0 0.0
2018-Jun-19 03:56N 36°48' W 121°47'0 0.0
2018-Jun-19 03:30N 36°48' W 121°47'0 0.0
2018-Jun-19 02:58N 36°48' W 121°47'0 0.0
2018-Jun-19 02:26N 36°48' W 121°47'0 0.0
2018-Jun-19 02:00N 36°48' W 121°47'0 0.0
2018-Jun-19 01:30N 36°48' W 121°47'0 0.0
2018-Jun-19 00:58N 36°48' W 121°47'0 0.0
2018-Jun-19 00:27N 36°48' W 121°47'0 0.0
2018-Jun-18 23:56N 36°48' W 121°47'0 0.0
2018-Jun-18 23:30N 36°48' W 121°47'0 0.0
2018-Jun-18 22:58N 36°48' W 121°47'0 0.0
2018-Jun-18 22:26N 36°48' W 121°47'0 0.0
2018-Jun-18 21:59N 36°48' W 121°47'0 0.0
2018-Jun-18 21:28N 36°48' W 121°47'0 0.0
2018-Jun-18 20:52N 36°48' W 121°47'0 0.0
2018-Jun-18 20:27N 36°48' W 121°47'0 0.0
2018-Jun-18 19:55N 36°48' W 121°47'0 0.0
2018-Jun-18 19:29N 36°48' W 121°47'0 0.0
2018-Jun-18 18:56N 36°48' W 121°47'0 0.0
2018-Jun-18 18:29N 36°48' W 121°47'0 0.0
2018-Jun-18 17:57N 36°48' W 121°47'0 0.0
2018-Jun-18 17:25N 36°48' W 121°47'0 0.0
2018-Jun-18 16:58N 36°48' W 121°47'0 0.0
2018-Jun-18 16:27N 36°48' W 121°47'0 0.0
2018-Jun-18 15:52N 36°48' W 121°47'0 0.0
2018-Jun-18 15:19N 36°48' W 121°47'0 0.0
2018-Jun-18 14:54N 36°48' W 121°47'0 0.0
2018-Jun-18 14:25N 36°48' W 121°47'0 0.0
2018-Jun-18 13:59N 36°48' W 121°47'0 0.0
2018-Jun-18 13:25N 36°48' W 121°47'0 0.0
2018-Jun-18 12:57N 36°48' W 121°47'0 0.0
2018-Jun-18 12:28N 36°48' W 121°47'0 0.0
2018-Jun-18 11:49N 36°48' W 121°47'0 0.0
2018-Jun-18 11:20N 36°48' W 121°47'0 0.0
2018-Jun-18 10:59N 36°48' W 121°47'0 0.0
2018-Jun-18 10:29N 36°48' W 121°47'0 0.0
2018-Jun-18 09:53N 36°48' W 121°47'0 0.0
2018-Jun-18 09:28N 36°48' W 121°47'0 0.0
2018-Jun-18 08:59N 36°48' W 121°47'0 0.0
2018-Jun-18 08:25N 36°48' W 121°47'0 0.0
2018-Jun-18 07:56N 36°48' W 121°47'0 0.0
2018-Jun-18 07:16N 36°48' W 121°47'0 0.0
2018-Jun-18 06:59N 36°48' W 121°47'0 0.0
2018-Jun-18 06:18N 36°48' W 121°47'0 0.0
2018-Jun-18 05:55N 36°48' W 121°47'0 0.0
2018-Jun-18 05:26N 36°48' W 121°47'0 0.0
2018-Jun-18 05:00N 36°48' W 121°47'0 0.0
2018-Jun-18 04:29N 36°48' W 121°47'0 0.0
2018-Jun-18 03:57N 36°48' W 121°47'0 0.0
2018-Jun-18 03:26N 36°48' W 121°47'0 0.0
2018-Jun-18 03:00N 36°48' W 121°47'0 0.0
2018-Jun-18 02:29N 36°48' W 121°47'0 0.0
2018-Jun-18 02:00N 36°48' W 121°47'0 0.0
2018-Jun-18 01:29N 36°48' W 121°47'0 0.0
2018-Jun-18 00:58N 36°48' W 121°47'0 0.0
2018-Jun-18 00:27N 36°48' W 121°47'0 0.0
2018-Jun-17 23:56N 36°48' W 121°47'0 0.0
2018-Jun-17 23:30N 36°48' W 121°47'0 0.0
2018-Jun-17 22:55N 36°48' W 121°47'0 0.0
2018-Jun-17 22:28N 36°48' W 121°47'0 0.0
2018-Jun-17 21:56N 36°48' W 121°47'0 0.0
2018-Jun-17 21:25N 36°48' W 121°47'0 0.0
2018-Jun-17 20:53N 36°48' W 121°47'0 0.0
2018-Jun-17 20:28N 36°48' W 121°47'0 0.0
2018-Jun-17 19:56N 36°48' W 121°47'0 0.0
2018-Jun-17 19:24N 36°48' W 121°47'0 0.0
2018-Jun-17 18:52N 36°48' W 121°47'0 0.0
2018-Jun-17 18:23N 36°48' W 121°47'0 0.0
2018-Jun-17 18:00N 36°48' W 121°47'0 0.0
2018-Jun-17 17:28N 36°48' W 121°47'0 0.0
2018-Jun-17 16:57N 36°48' W 121°47'0 0.0
2018-Jun-17 16:26N 36°48' W 121°47'0 0.0
2018-Jun-17 16:00N 36°48' W 121°47'0 0.0
2018-Jun-17 15:29N 36°48' W 121°47'0 0.0
2018-Jun-17 14:54N 36°48' W 121°47'0 0.0
2018-Jun-17 14:23N 36°48' W 121°47'0 0.0
2018-Jun-17 13:56N 36°48' W 121°47'0 0.0
2018-Jun-17 13:30N 36°48' W 121°47'0 0.0
2018-Jun-17 12:58N 36°48' W 121°47'0 0.0
2018-Jun-17 12:27N 36°48' W 121°47'0 0.0
2018-Jun-17 12:00N 36°48' W 121°47'0 0.0
2018-Jun-17 11:29N 36°48' W 121°47'0 0.0
2018-Jun-17 10:57N 36°48' W 121°47'0 0.0
2018-Jun-17 10:25N 36°48' W 121°47'0 0.0
2018-Jun-17 09:51N 36°48' W 121°47'0 0.0
2018-Jun-17 09:27N 36°48' W 121°47'0 0.0
2018-Jun-17 08:58N 36°48' W 121°47'0 0.0
2018-Jun-17 08:14N 36°48' W 121°47'0 0.0
2018-Jun-17 07:58N 36°48' W 121°47'0 0.0
2018-Jun-17 07:26N 36°48' W 121°47'0 0.0
2018-Jun-17 07:00N 36°48' W 121°47'0 0.0
2018-Jun-17 06:28N 36°48' W 121°47'0 0.0
2018-Jun-17 05:57N 36°48' W 121°47'0 0.0
2018-Jun-17 05:26N 36°48' W 121°47'0 0.0
2018-Jun-17 04:55N 36°48' W 121°47'0 0.0
2018-Jun-17 04:29N 36°48' W 121°47'0 0.0
2018-Jun-17 03:57N 36°48' W 121°47'0 0.0
2018-Jun-17 03:26N 36°48' W 121°47'0 0.0
2018-Jun-17 03:00N 36°48' W 121°47'0 0.0
2018-Jun-17 02:28N 36°48' W 121°47'0 0.0
2018-Jun-17 01:57N 36°48' W 121°47'0 0.0
2018-Jun-17 01:25N 36°48' W 121°47'0 0.0
2018-Jun-17 00:59N 36°48' W 121°47'0 0.0
2018-Jun-17 00:27N 36°48' W 121°47'0 0.0
2018-Jun-16 23:57N 36°48' W 121°47'0 0.0
2018-Jun-16 23:26N 36°48' W 121°47'0 0.0
2018-Jun-16 23:00N 36°48' W 121°47'0 0.0
2018-Jun-16 22:30N 36°48' W 121°47'0 0.0
2018-Jun-16 21:57N 36°48' W 121°47'0 0.0
2018-Jun-16 21:26N 36°48' W 121°47'0 0.0
2018-Jun-16 21:00N 36°48' W 121°47'0 0.0
2018-Jun-16 20:29N 36°48' W 121°47'0 0.0
2018-Jun-16 19:58N 36°48' W 121°47'0 0.0
2018-Jun-16 19:30N 36°48' W 121°47'0 0.0
2018-Jun-16 19:00N 36°48' W 121°47'0 0.0
2018-Jun-16 18:25N 36°48' W 121°47'0 0.0
2018-Jun-16 17:58N 36°48' W 121°47'0 0.0
2018-Jun-16 17:26N 36°48' W 121°47'0 0.0
2018-Jun-16 16:58N 36°48' W 121°47'0 0.0
2018-Jun-16 16:23N 36°48' W 121°47'0 0.0
2018-Jun-16 15:57N 36°48' W 121°47'0 0.0
2018-Jun-16 15:29N 36°48' W 121°47'0 0.0
2018-Jun-16 14:59N 36°48' W 121°47'0 0.0
2018-Jun-16 14:29N 36°48' W 121°47'0 0.0
2018-Jun-16 13:57N 36°48' W 121°47'0 0.0
2018-Jun-16 13:22N 36°48' W 121°47'0 0.0
2018-Jun-16 12:59N 36°48' W 121°47'0 0.0
2018-Jun-16 12:27N 36°48' W 121°47'0 0.0
2018-Jun-16 12:00N 36°48' W 121°47'0 0.0
2018-Jun-16 11:29N 36°48' W 121°47'0 0.0
2018-Jun-16 10:57N 36°48' W 121°47'0 0.0
2018-Jun-16 10:21N 36°48' W 121°47'0 0.0
2018-Jun-16 09:55N 36°48' W 121°47'0 0.0
2018-Jun-16 09:29N 36°48' W 121°47'0 0.0
2018-Jun-16 09:00N 36°48' W 121°47'0 0.0
2018-Jun-16 08:15N 36°48' W 121°47'0 0.0
2018-Jun-16 07:54N 36°48' W 121°47'0 0.0
2018-Jun-16 07:29N 36°48' W 121°47'0 0.0
2018-Jun-16 06:57N 36°48' W 121°47'0 0.0
2018-Jun-16 06:21N 36°48' W 121°47'0 0.0
2018-Jun-16 05:58N 36°48' W 121°47'0 0.0
2018-Jun-16 05:25N 36°48' W 121°47'0 0.0
2018-Jun-16 04:59N 36°48' W 121°47'0 0.0
2018-Jun-16 04:28N 36°48' W 121°47'0 0.0
2018-Jun-16 03:58N 36°48' W 121°47'0 0.0
2018-Jun-16 03:27N 36°48' W 121°47'0 0.0
2018-Jun-16 02:56N 36°48' W 121°47'0 0.0
2018-Jun-16 02:29N 36°48' W 121°47'0 0.0
2018-Jun-16 02:00N 36°48' W 121°47'0 0.0
2018-Jun-16 01:24N 36°48' W 121°47'0 0.0
2018-Jun-16 00:58N 36°48' W 121°47'0 0.0
2018-Jun-16 00:26N 36°48' W 121°47'0 0.0
2018-Jun-16 00:00N 36°48' W 121°47'0 0.0
2018-Jun-15 23:29N 36°48' W 121°47'0 0.0
2018-Jun-15 23:00N 36°48' W 121°47'0 0.0
2018-Jun-15 22:26N 36°48' W 121°47'0 0.0
2018-Jun-15 22:00N 36°48' W 121°47'0 0.0
2018-Jun-15 21:29N 36°48' W 121°47'0 0.0
2018-Jun-15 20:47N 36°48' W 121°47'0 0.0
2018-Jun-15 20:26N 36°48' W 121°47'0 0.0
2018-Jun-15 20:00N 36°48' W 121°47'0 0.0
2018-Jun-15 19:29N 36°48' W 121°47'0 0.0
2018-Jun-15 18:58N 36°48' W 121°47'0 0.0
2018-Jun-15 18:21N 36°48' W 121°47'0 0.0
2018-Jun-15 17:50N 36°48' W 121°47'0 0.0
2018-Jun-15 17:29N 36°48' W 121°47'0 0.0
2018-Jun-15 16:58N 36°48' W 121°47'0 0.0
2018-Jun-15 16:27N 36°48' W 121°47'0 0.0
2018-Jun-15 15:51N 36°48' W 121°47'0 0.0
2018-Jun-15 15:30N 36°48' W 121°47'0 0.0
2018-Jun-15 15:00N 36°48' W 121°47'0 0.0
2018-Jun-15 14:28N 36°48' W 121°47'0 0.0
2018-Jun-15 13:53N 36°48' W 121°47'0 0.0
2018-Jun-15 13:29N 36°48' W 121°47'0 0.0
2018-Jun-15 12:55N 36°48' W 121°47'0 0.0
2018-Jun-15 12:29N 36°48' W 121°47'0 0.0
2018-Jun-15 12:00N 36°48' W 121°47'0 0.0
2018-Jun-15 11:28N 36°48' W 121°47'0 0.0
2018-Jun-15 10:51N 36°48' W 121°47'0 0.0
2018-Jun-15 10:30N 36°48' W 121°47'0 0.0
2018-Jun-15 09:53N 36°48' W 121°47'0 0.0
2018-Jun-15 09:26N 36°48' W 121°47'0 0.0
2018-Jun-15 08:59N 36°48' W 121°47'0 0.0
2018-Jun-15 08:29N 36°48' W 121°47'0 0.0
2018-Jun-15 07:53N 36°48' W 121°47'0 0.0
2018-Jun-15 07:25N 36°48' W 121°47'0 0.0
2018-Jun-15 06:25N 36°48' W 121°47'0 0.0
2018-Jun-15 05:58N 36°48' W 121°47'0 0.0
2018-Jun-15 05:23N 36°48' W 121°47'0 0.0
2018-Jun-15 04:55N 36°48' W 121°47'0 0.0
2018-Jun-15 04:28N 36°48' W 121°47'0 0.0
2018-Jun-15 03:57N 36°48' W 121°47'0 0.0
2018-Jun-15 03:30N 36°48' W 121°47'0 0.0
2018-Jun-15 02:59N 36°48' W 121°47'0 0.0
2018-Jun-15 02:28N 36°48' W 121°47'0 0.0
2018-Jun-15 01:57N 36°48' W 121°47'0 0.0
2018-Jun-15 01:26N 36°48' W 121°47'0 0.0
2018-Jun-15 00:56N 36°48' W 121°47'0 0.0
2018-Jun-15 00:29N 36°48' W 121°47'0 0.0
2018-Jun-14 23:58N 36°48' W 121°47'0 0.0
2018-Jun-14 23:27N 36°48' W 121°47'0 0.0
2018-Jun-14 23:00N 36°48' W 121°47'0 0.0
2018-Jun-14 22:26N 36°48' W 121°47'0 0.0
2018-Jun-14 21:53N 36°48' W 121°47'0 0.0
2018-Jun-14 21:30N 36°48' W 121°47'0 0.0
2018-Jun-14 20:56N 36°48' W 121°47'0 0.0
2018-Jun-14 20:23N 36°48' W 121°47'0 0.0
2018-Jun-14 19:51N 36°48' W 121°47'0 0.0
2018-Jun-14 19:25N 36°48' W 121°47'0 0.0
2018-Jun-14 18:56N 36°48' W 121°47'0 0.0
2018-Jun-14 18:30N 36°48' W 121°47'0 0.0
2018-Jun-14 17:52N 36°48' W 121°47'0 0.0
2018-Jun-14 17:28N 36°48' W 121°47'0 0.0
2018-Jun-14 16:57N 36°48' W 121°47'0 0.0
2018-Jun-14 16:26N 36°48' W 121°47'0 0.0
2018-Jun-14 15:53N 36°48' W 121°47'0 0.0
2018-Jun-14 15:26N 36°48' W 121°47'0 0.0
2018-Jun-14 15:00N 36°48' W 121°47'0 0.0
2018-Jun-14 14:29N 36°48' W 121°47'0 0.0
2018-Jun-14 13:57N 36°48' W 121°47'0 0.0
2018-Jun-14 13:26N 36°48' W 121°47'0 0.0
2018-Jun-14 12:59N 36°48' W 121°47'0 0.0
2018-Jun-14 12:29N 36°48' W 121°47'0 0.0
2018-Jun-14 11:52N 36°48' W 121°47'0 0.0
2018-Jun-14 11:28N 36°48' W 121°47'0 0.0
2018-Jun-14 10:56N 36°48' W 121°47'0 0.0
2018-Jun-14 10:30N 36°48' W 121°47'0 0.0
2018-Jun-14 10:00N 36°48' W 121°47'0 0.0
2018-Jun-14 09:28N 36°48' W 121°47'0 0.0
2018-Jun-14 08:57N 36°48' W 121°47'0 0.0
2018-Jun-14 08:11N 36°48' W 121°47'0 0.0
2018-Jun-14 07:58N 36°48' W 121°47'0 0.0
2018-Jun-14 07:26N 36°48' W 121°47'0 0.0
2018-Jun-14 06:52N 36°48' W 121°47'0 0.0
2018-Jun-14 06:29N 36°48' W 121°47'0 0.0
2018-Jun-14 05:58N 36°48' W 121°47'0 0.0
2018-Jun-14 05:24N 36°48' W 121°47'0 0.0
2018-Jun-14 04:59N 36°48' W 121°47'0 0.0
2018-Jun-14 04:30N 36°48' W 121°47'0 0.0
2018-Jun-14 03:55N 36°48' W 121°47'0 0.0
2018-Jun-14 03:30N 36°48' W 121°47'0 0.0
2018-Jun-14 03:01N 36°48' W 121°47'0 0.0
2018-Jun-14 02:30N 36°48' W 121°47'0 0.0
2018-Jun-14 01:59N 36°48' W 121°47'0 0.0
2018-Jun-14 01:30N 36°48' W 121°47'0 0.0
2018-Jun-14 00:56N 36°48' W 121°47'0 0.0
2018-Jun-14 00:30N 36°48' W 121°47'0 0.0
2018-Jun-13 23:55N 36°48' W 121°47'0 0.0
2018-Jun-13 23:29N 36°48' W 121°47'0 0.0
2018-Jun-13 22:55N 36°48' W 121°47'0 0.0
2018-Jun-13 22:30N 36°48' W 121°47'0 0.0
2018-Jun-13 21:57N 36°48' W 121°47'0 0.0
2018-Jun-13 21:28N 36°48' W 121°47'0 0.0
2018-Jun-13 20:58N 36°48' W 121°47'0 0.0
2018-Jun-13 20:31N 36°48' W 121°47'0 0.0
2018-Jun-13 19:59N 36°48' W 121°47'0 0.0
2018-Jun-13 19:27N 36°48' W 121°47'0 0.0
2018-Jun-13 18:56N 36°48' W 121°47'0 0.0
2018-Jun-13 18:30N 36°48' W 121°47'0 0.0
2018-Jun-13 17:59N 36°48' W 121°47'0 0.0
2018-Jun-13 17:29N 36°48' W 121°47'0 0.0
2018-Jun-13 16:58N 36°48' W 121°47'0 0.0
2018-Jun-13 16:26N 36°48' W 121°47'0 0.0
2018-Jun-13 15:56N 36°48' W 121°47'0 0.0
2018-Jun-13 15:29N 36°48' W 121°47'0 0.0
2018-Jun-13 15:00N 36°48' W 121°47'0 0.0
2018-Jun-13 14:24N 36°48' W 121°47'0 0.0
2018-Jun-13 13:45N 36°48' W 121°47'0 0.0
2018-Jun-13 13:23N 36°48' W 121°47'0 0.0
2018-Jun-13 12:58N 36°48' W 121°47'0 0.0
2018-Jun-13 12:25N 36°48' W 121°47'0 0.0
2018-Jun-13 11:56N 36°48' W 121°47'0 0.0
2018-Jun-13 11:29N 36°48' W 121°47'0 0.0
2018-Jun-13 10:56N 36°48' W 121°47'0 0.0
2018-Jun-13 10:30N 36°48' W 121°47'0 0.0
2018-Jun-13 09:59N 36°48' W 121°47'0 0.0
2018-Jun-13 09:27N 36°48' W 121°47'0 0.0
2018-Jun-13 08:54N 36°48' W 121°47'0 0.0
2018-Jun-13 08:29N 36°48' W 121°47'0 0.0
2018-Jun-13 07:58N 36°48' W 121°47'0 0.0
2018-Jun-13 07:30N 36°48' W 121°47'0 0.0
2018-Jun-13 06:56N 36°48' W 121°47'0 0.0
2018-Jun-13 06:25N 36°48' W 121°47'0 0.0
2018-Jun-13 05:50N 36°48' W 121°47'0 0.0
2018-Jun-13 05:29N 36°48' W 121°47'0 0.0
2018-Jun-13 05:00N 36°48' W 121°47'0 0.0
2018-Jun-13 04:27N 36°48' W 121°47'0 0.0
2018-Jun-13 03:53N 36°48' W 121°47'0 0.0
2018-Jun-13 03:27N 36°48' W 121°47'0 0.0
2018-Jun-13 02:58N 36°48' W 121°47'0 0.0
2018-Jun-13 02:26N 36°48' W 121°47'0 0.0
2018-Jun-13 01:59N 36°48' W 121°47'0 0.0
2018-Jun-13 01:30N 36°48' W 121°47'0 0.0
2018-Jun-13 00:57N 36°48' W 121°47'0 0.0
2018-Jun-13 00:26N 36°48' W 121°47'0 0.0
2018-Jun-12 23:55N 36°48' W 121°47'0 0.0
2018-Jun-12 23:26N 36°48' W 121°47'0 0.0
2018-Jun-12 22:59N 36°48' W 121°47'0 0.0
2018-Jun-12 22:29N 36°48' W 121°47'0 0.0
2018-Jun-12 21:53N 36°48' W 121°47'0 0.0
2018-Jun-12 21:28N 36°48' W 121°47'0 0.0
2018-Jun-12 21:00N 36°48' W 121°47'0 0.0
2018-Jun-12 20:29N 36°48' W 121°47'0 0.0
2018-Jun-12 19:59N 36°48' W 121°47'0 0.0
2018-Jun-12 19:26N 36°48' W 121°47'  
Track history (hours):
 
Tides and Currents Weather Stations Pressure Air Temp Water Temp Dewpoint Dewpoint Depression Visibility Wind Speed Wind Dir Waves Ship Positions

Western Flyer

Owner: MONTEREY BAY AQUARIUM RESEARCH INSTITUTE, MOSS LANDING, CA. More information available from US FCC via Universal Licensing System and Coast Guard Vessel Documentation Center.

Last reported at 2018-Jun-22 19:00 UTC. Time now 2018-Jun-22 18:58 UTC.
Position N 36°42' W 122°03'.

Length 34 m; draft 4.5 m.

Type: Dredging. MMSI: 367766000.

Date/timePositionNaut miles runAvg speedWind from/ knotsBaromVisibWave heightAir tempDewpointWater temp
2018-Jun-22 19:00N 36°42' W 122°03'0 0.2
2018-Jun-22 18:30N 36°42' W 122°03'0 0.1
2018-Jun-22 18:00N 36°42' W 122°03'0 0.0
2018-Jun-22 17:30N 36°42' W 122°03'0 0.0
2018-Jun-22 17:00N 36°42' W 122°03'0 0.0
2018-Jun-22 16:30N 36°42' W 122°03'0 0.0
2018-Jun-22 16:00N 36°42' W 122°03'0 0.0
2018-Jun-22 15:31N 36°42' W 122°03'0 0.0
2018-Jun-22 15:00N 36°42' W 122°03'0 0.0
2018-Jun-22 14:30N 36°42' W 122°03'0 0.2
2018-Jun-22 14:00N 36°42' W 122°03'0 0.0
2018-Jun-22 13:30N 36°42' W 122°03'0 0.2
2018-Jun-22 13:01N 36°42' W 122°03'0 0.4
2018-Jun-22 12:30N 36°42' W 122°03'2 3.0
2018-Jun-22 12:00N 36°41' W 122°01'2 3.7
2018-Jun-22 11:30N 36°43' W 121°60'3 5.3
2018-Jun-22 11:00N 36°41' W 121°57'0 0.8
2018-Jun-22 10:30N 36°41' W 121°56'1 2.1
2018-Jun-22 10:00N 36°41' W 121°58'1 2.2
2018-Jun-22 09:28N 36°41' W 121°59'1 2.5
2018-Jun-22 09:00N 36°42' W 122°00'2 4.6
2018-Jun-22 08:29N 36°42' W 122°03'1 2.0
2018-Jun-22 08:00N 36°42' W 122°05'2 3.7
2018-Jun-22 07:30N 36°43' W 122°07'2 3.2
2018-Jun-22 07:00N 36°43' W 122°09'1 1.9
2018-Jun-22 06:30N 36°44' W 122°08'1 1.2
2018-Jun-22 06:00N 36°44' W 122°07'1 1.1
2018-Jun-22 05:30N 36°43' W 122°06'1 1.5
2018-Jun-22 05:00N 36°43' W 122°06'1 1.4
2018-Jun-22 04:29N 36°43' W 122°05'1 1.3
2018-Jun-22 03:59N 36°42' W 122°04'1 1.1
2018-Jun-22 03:30N 36°42' W 122°04'1 1.2
2018-Jun-22 03:00N 36°42' W 122°03'2 4.7
2018-Jun-22 02:30N 36°41' W 122°00'4 6.3
2018-Jun-22 01:53N 36°44' W 121°57'2 5.6
2018-Jun-22 01:27N 36°46' W 121°56'0 0.8
2018-Jun-22 00:56N 36°47' W 121°55'1 1.9
2018-Jun-22 00:30N 36°46' W 121°54'3 6.1
2018-Jun-21 23:59N 36°47' W 121°51'3 4.9
2018-Jun-21 23:23N 36°48' W 121°47'0 0.0
2018-Jun-21 22:52N 36°48' W 121°47'0 0.0
2018-Jun-21 22:26N 36°48' W 121°47'0 0.0
2018-Jun-21 21:54N 36°48' W 121°47'0 0.0
2018-Jun-21 21:24N 36°48' W 121°47'0 0.0
2018-Jun-21 20:55N 36°48' W 121°47'0 0.0
2018-Jun-21 20:27N 36°48' W 121°47'0 0.0
2018-Jun-21 19:58N 36°48' W 121°47'0 0.0
2018-Jun-21 19:29N 36°48' W 121°47'0 0.0
2018-Jun-21 18:59N 36°48' W 121°47'0 0.0
2018-Jun-21 18:27N 36°48' W 121°47'0 0.0
2018-Jun-21 18:00N 36°48' W 121°47'0 0.0
2018-Jun-21 17:28N 36°48' W 121°47'0 0.0
2018-Jun-21 16:57N 36°48' W 121°47'0 0.0
2018-Jun-21 16:27N 36°48' W 121°47'0 0.0
2018-Jun-21 15:56N 36°48' W 121°47'0 0.0
2018-Jun-21 15:27N 36°48' W 121°47'0 0.0
2018-Jun-21 14:58N 36°48' W 121°47'0 0.0
2018-Jun-21 14:26N 36°48' W 121°47'0 0.0
2018-Jun-21 14:00N 36°48' W 121°47'0 0.0
2018-Jun-21 13:24N 36°48' W 121°47'0 0.0
2018-Jun-21 12:47N 36°48' W 121°47'0 0.0
2018-Jun-21 12:26N 36°48' W 121°47'0 0.0
2018-Jun-21 11:58N 36°48' W 121°47'0 0.0
2018-Jun-21 11:27N 36°48' W 121°47'0 0.0
2018-Jun-21 10:56N 36°48' W 121°47'0 0.0
2018-Jun-21 10:25N 36°48' W 121°47'0 0.0
2018-Jun-21 09:59N 36°48' W 121°47'0 0.0
2018-Jun-21 09:27N 36°48' W 121°47'0 0.0
2018-Jun-21 08:50N 36°48' W 121°47'0 0.0
2018-Jun-21 08:30N 36°48' W 121°47'0 0.0
2018-Jun-21 07:59N 36°48' W 121°47'0 0.0
2018-Jun-21 07:29N 36°48' W 121°47'0 0.0
2018-Jun-21 06:51N 36°48' W 121°47'0 0.0
2018-Jun-21 06:28N 36°48' W 121°47'0 0.0
2018-Jun-21 05:55N 36°48' W 121°47'0 0.0
2018-Jun-21 05:30N 36°48' W 121°47'0 0.0
2018-Jun-21 04:58N 36°48' W 121°47'0 0.0
2018-Jun-21 04:30N 36°48' W 121°47'0 0.0
2018-Jun-21 03:57N 36°48' W 121°47'0 0.0
2018-Jun-21 03:20N 36°48' W 121°47'0 0.0
2018-Jun-21 03:00N 36°48' W 121°47'0 0.0
2018-Jun-21 02:25N 36°48' W 121°47'0 0.0
2018-Jun-21 01:59N 36°48' W 121°47'0 0.0
2018-Jun-21 01:26N 36°48' W 121°47'0 0.0
2018-Jun-21 01:00N 36°48' W 121°47'0 0.0
2018-Jun-21 00:27N 36°48' W 121°47'0 0.0
2018-Jun-20 23:59N 36°48' W 121°47'0 0.0
2018-Jun-20 23:30N 36°48' W 121°47'0 0.0
2018-Jun-20 22:51N 36°48' W 121°47'0 0.0
2018-Jun-20 22:30N 36°48' W 121°47'0 0.0
2018-Jun-20 21:56N 36°48' W 121°47'0 0.0
2018-Jun-20 21:30N 36°48' W 121°47'0 0.0
2018-Jun-20 20:59N 36°48' W 121°47'0 0.0
2018-Jun-20 20:28N 36°48' W 121°47'0 0.0
2018-Jun-20 19:56N 36°48' W 121°47'0 0.0
2018-Jun-20 19:30N 36°48' W 121°47'0 0.0
2018-Jun-20 18:59N 36°48' W 121°47'0 0.0
2018-Jun-20 18:28N 36°48' W 121°47'0 0.0
2018-Jun-20 17:51N 36°48' W 121°47'0 0.0
2018-Jun-20 17:25N 36°48' W 121°47'0 0.0
2018-Jun-20 17:00N 36°48' W 121°47'0 0.0
2018-Jun-20 16:28N 36°48' W 121°47'0 0.0
2018-Jun-20 15:57N 36°48' W 121°47'0 0.0
2018-Jun-20 15:30N 36°48' W 121°47'0 0.0
2018-Jun-20 14:55N 36°48' W 121°47'0 0.0
2018-Jun-20 14:28N 36°48' W 121°47'0 0.0
2018-Jun-20 13:45N 36°48' W 121°47'0 0.0
2018-Jun-20 13:29N 36°48' W 121°47'0 0.0
2018-Jun-20 12:58N 36°48' W 121°47'0 0.0
2018-Jun-20 12:23N 36°48' W 121°47'0 0.0
2018-Jun-20 11:53N 36°48' W 121°47'0 0.0
2018-Jun-20 11:25N 36°48' W 121°47'0 0.0
2018-Jun-20 10:56N 36°48' W 121°47'0 0.0
2018-Jun-20 10:27N 36°48' W 121°47'0 0.0
2018-Jun-20 09:51N 36°48' W 121°47'0 0.0
2018-Jun-20 09:31N 36°48' W 121°47'0 0.0
2018-Jun-20 09:00N 36°48' W 121°47'0 0.0
2018-Jun-20 08:29N 36°48' W 121°47'0 0.0
2018-Jun-20 07:57N 36°48' W 121°47'0 0.0
2018-Jun-20 07:22N 36°48' W 121°47'0 0.0
2018-Jun-20 07:00N 36°48' W 121°47'0 0.0
2018-Jun-20 06:30N 36°48' W 121°47'0 0.0
2018-Jun-20 05:58N 36°48' W 121°47'0 0.0
2018-Jun-20 05:26N 36°48' W 121°47'0 0.0
2018-Jun-20 05:00N 36°48' W 121°47'0 0.0
2018-Jun-20 04:30N 36°48' W 121°47'0 0.0
2018-Jun-20 03:59N 36°48' W 121°47'0 0.0
2018-Jun-20 03:26N 36°48' W 121°47'0 0.0
2018-Jun-20 02:56N 36°48' W 121°47'0 0.0
2018-Jun-20 02:30N 36°48' W 121°47'0 0.0
2018-Jun-20 01:59N 36°48' W 121°47'0 0.0
2018-Jun-20 01:29N 36°48' W 121°47'0 0.0
2018-Jun-20 00:56N 36°48' W 121°47'0 0.0
2018-Jun-20 00:30N 36°48' W 121°47'0 0.0
2018-Jun-19 23:59N 36°48' W 121°47'0 0.0
2018-Jun-19 23:27N 36°48' W 121°47'0 0.0
2018-Jun-19 22:56N 36°48' W 121°47'0 0.0
2018-Jun-19 22:28N 36°48' W 121°47'0 0.0
2018-Jun-19 21:56N 36°48' W 121°47'0 0.0
2018-Jun-19 21:22N 36°48' W 121°47'0 0.0
2018-Jun-19 21:00N 36°48' W 121°47'0 0.0
2018-Jun-19 19:48N 36°48' W 121°47'0 0.0
2018-Jun-19 19:26N 36°48' W 121°47'0 0.0
2018-Jun-19 18:54N 36°48' W 121°47'0 0.0
2018-Jun-19 18:27N 36°48' W 121°47'0 0.0
2018-Jun-19 17:58N 36°48' W 121°47'0 0.0
2018-Jun-19 17:30N 36°48' W 121°47'0 0.0
2018-Jun-19 16:58N 36°48' W 121°47'0 0.0
2018-Jun-19 16:26N 36°48' W 121°47'0 0.0
2018-Jun-19 16:00N 36°48' W 121°47'0 0.0
2018-Jun-19 15:28N 36°48' W 121°47'0 0.0
2018-Jun-19 14:56N 36°48' W 121°47'0 0.0
2018-Jun-19 14:25N 36°48' W 121°47'0 0.0
2018-Jun-19 14:00N 36°48' W 121°47'0 0.0
2018-Jun-19 13:25N 36°48' W 121°47'0 0.0
2018-Jun-19 13:00N 36°48' W 121°47'0 0.0
2018-Jun-19 12:28N 36°48' W 121°47'0 0.0
2018-Jun-19 11:51N 36°48' W 121°47'0 0.0
2018-Jun-19 11:27N 36°48' W 121°47'0 0.0
2018-Jun-19 10:59N 36°48' W 121°47'0 0.0
2018-Jun-19 10:27N 36°48' W 121°47'0 0.0
2018-Jun-19 09:56N 36°48' W 121°47'0 0.0
2018-Jun-19 09:16N 36°48' W 121°47'0 0.0
2018-Jun-19 08:56N 36°48' W 121°47'0 0.0
2018-Jun-19 08:27N 36°48' W 121°47'0 0.0
2018-Jun-19 08:00N 36°48' W 121°47'0 0.0
2018-Jun-19 07:29N 36°48' W 121°47'0 0.0
2018-Jun-19 06:53N 36°48' W 121°47'0 0.0
2018-Jun-19 06:22N 36°48' W 121°47'0 0.0
2018-Jun-19 05:56N 36°48' W 121°47'0 0.0
2018-Jun-19 05:29N 36°48' W 121°47'0 0.0
2018-Jun-19 04:58N 36°48' W 121°47'0 0.0
2018-Jun-19 04:28N 36°48' W 121°47'0 0.0
2018-Jun-19 03:56N 36°48' W 121°47'0 0.0
2018-Jun-19 03:30N 36°48' W 121°47'0 0.0
2018-Jun-19 02:58N 36°48' W 121°47'0 0.0
2018-Jun-19 02:26N 36°48' W 121°47'0 0.0
2018-Jun-19 02:00N 36°48' W 121°47'0 0.0
2018-Jun-19 01:30N 36°48' W 121°47'0 0.0
2018-Jun-19 00:58N 36°48' W 121°47'0 0.0
2018-Jun-19 00:27N 36°48' W 121°47'0 0.0
2018-Jun-18 23:56N 36°48' W 121°47'0 0.0
2018-Jun-18 23:30N 36°48' W 121°47'0 0.0
2018-Jun-18 22:58N 36°48' W 121°47'0 0.0
2018-Jun-18 22:26N 36°48' W 121°47'0 0.0
2018-Jun-18 21:59N 36°48' W 121°47'0 0.0
2018-Jun-18 21:28N 36°48' W 121°47'0 0.0
2018-Jun-18 20:52N 36°48' W 121°47'0 0.0
2018-Jun-18 20:27N 36°48' W 121°47'0 0.0
2018-Jun-18 19:55N 36°48' W 121°47'0 0.0
2018-Jun-18 19:29N 36°48' W 121°47'0 0.0
2018-Jun-18 18:56N 36°48' W 121°47'0 0.0
2018-Jun-18 18:29N 36°48' W 121°47'0 0.0
2018-Jun-18 17:57N 36°48' W 121°47'0 0.0
2018-Jun-18 17:25N 36°48' W 121°47'0 0.0
2018-Jun-18 16:58N 36°48' W 121°47'0 0.0
2018-Jun-18 16:27N 36°48' W 121°47'0 0.0
2018-Jun-18 15:52N 36°48' W 121°47'0 0.0
2018-Jun-18 15:19N 36°48' W 121°47'0 0.0
2018-Jun-18 14:54N 36°48' W 121°47'0 0.0
2018-Jun-18 14:25N 36°48' W 121°47'0 0.0
2018-Jun-18 13:59N 36°48' W 121°47'0 0.0
2018-Jun-18 13:25N 36°48' W 121°47'0 0.0
2018-Jun-18 12:57N 36°48' W 121°47'0 0.0
2018-Jun-18 12:28N 36°48' W 121°47'0 0.0
2018-Jun-18 11:49N 36°48' W 121°47'0 0.0
2018-Jun-18 11:20N 36°48' W 121°47'0 0.0
2018-Jun-18 10:59N 36°48' W 121°47'0 0.0
2018-Jun-18 10:29N 36°48' W 121°47'0 0.0
2018-Jun-18 09:53N 36°48' W 121°47'0 0.0
2018-Jun-18 09:28N 36°48' W 121°47'0 0.0
2018-Jun-18 08:59N 36°48' W 121°47'0 0.0
2018-Jun-18 08:25N 36°48' W 121°47'0 0.0
2018-Jun-18 07:56N 36°48' W 121°47'0 0.0
2018-Jun-18 07:16N 36°48' W 121°47'0 0.0
2018-Jun-18 06:59N 36°48' W 121°47'0 0.0
2018-Jun-18 06:18N 36°48' W 121°47'0 0.0
2018-Jun-18 05:55N 36°48' W 121°47'0 0.0
2018-Jun-18 05:26N 36°48' W 121°47'0 0.0
2018-Jun-18 05:00N 36°48' W 121°47'0 0.0
2018-Jun-18 04:29N 36°48' W 121°47'0 0.0
2018-Jun-18 03:57N 36°48' W 121°47'0 0.0
2018-Jun-18 03:26N 36°48' W 121°47'0 0.0
2018-Jun-18 03:00N 36°48' W 121°47'0 0.0
2018-Jun-18 02:29N 36°48' W 121°47'0 0.0
2018-Jun-18 02:00N 36°48' W 121°47'0 0.0
2018-Jun-18 01:29N 36°48' W 121°47'0 0.0
2018-Jun-18 00:58N 36°48' W 121°47'0 0.0
2018-Jun-18 00:27N 36°48' W 121°47'0 0.0
2018-Jun-17 23:56N 36°48' W 121°47'0 0.0
2018-Jun-17 23:30N 36°48' W 121°47'0 0.0
2018-Jun-17 22:55N 36°48' W 121°47'0 0.0
2018-Jun-17 22:28N 36°48' W 121°47'0 0.0
2018-Jun-17 21:56N 36°48' W 121°47'0 0.0
2018-Jun-17 21:25N 36°48' W 121°47'0 0.0
2018-Jun-17 20:53N 36°48' W 121°47'0 0.0
2018-Jun-17 20:28N 36°48' W 121°47'0 0.0
2018-Jun-17 19:56N 36°48' W 121°47'0 0.0
2018-Jun-17 19:24N 36°48' W 121°47'0 0.0
2018-Jun-17 18:52N 36°48' W 121°47'0 0.0
2018-Jun-17 18:23N 36°48' W 121°47'0 0.0
2018-Jun-17 18:00N 36°48' W 121°47'0 0.0
2018-Jun-17 17:28N 36°48' W 121°47'0 0.0
2018-Jun-17 16:57N 36°48' W 121°47'0 0.0
2018-Jun-17 16:26N 36°48' W 121°47'0 0.0
2018-Jun-17 16:00N 36°48' W 121°47'0 0.0
2018-Jun-17 15:29N 36°48' W 121°47'0 0.0
2018-Jun-17 14:54N 36°48' W 121°47'0 0.0
2018-Jun-17 14:23N 36°48' W 121°47'0 0.0
2018-Jun-17 13:56N 36°48' W 121°47'0 0.0
2018-Jun-17 13:30N 36°48' W 121°47'0 0.0
2018-Jun-17 12:58N 36°48' W 121°47'0 0.0
2018-Jun-17 12:27N 36°48' W 121°47'0 0.0
2018-Jun-17 12:00N 36°48' W 121°47'0 0.0
2018-Jun-17 11:29N 36°48' W 121°47'0 0.0
2018-Jun-17 10:57N 36°48' W 121°47'0 0.0
2018-Jun-17 10:25N 36°48' W 121°47'0 0.0
2018-Jun-17 09:51N 36°48' W 121°47'0 0.0
2018-Jun-17 09:27N 36°48' W 121°47'0 0.0
2018-Jun-17 08:58N 36°48' W 121°47'0 0.0
2018-Jun-17 08:14N 36°48' W 121°47'0 0.0
2018-Jun-17 07:58N 36°48' W 121°47'0 0.0
2018-Jun-17 07:26N 36°48' W 121°47'0 0.0
2018-Jun-17 07:00N 36°48' W 121°47'0 0.0
2018-Jun-17 06:28N 36°48' W 121°47'0 0.0
2018-Jun-17 05:57N 36°48' W 121°47'0 0.0
2018-Jun-17 05:26N 36°48' W 121°47'0 0.0
2018-Jun-17 04:55N 36°48' W 121°47'0 0.0
2018-Jun-17 04:29N 36°48' W 121°47'0 0.0
2018-Jun-17 03:57N 36°48' W 121°47'0 0.0
2018-Jun-17 03:26N 36°48' W 121°47'0 0.0
2018-Jun-17 03:00N 36°48' W 121°47'0 0.0
2018-Jun-17 02:28N 36°48' W 121°47'0 0.0
2018-Jun-17 01:57N 36°48' W 121°47'0 0.0
2018-Jun-17 01:25N 36°48' W 121°47'0 0.0
2018-Jun-17 00:59N 36°48' W 121°47'0 0.0
2018-Jun-17 00:27N 36°48' W 121°47'0 0.0
2018-Jun-16 23:57N 36°48' W 121°47'0 0.0
2018-Jun-16 23:26N 36°48' W 121°47'0 0.0
2018-Jun-16 23:00N 36°48' W 121°47'0 0.0
2018-Jun-16 22:30N 36°48' W 121°47'0 0.0
2018-Jun-16 21:57N 36°48' W 121°47'0 0.0
2018-Jun-16 21:26N 36°48' W 121°47'0 0.0
2018-Jun-16 21:00N 36°48' W 121°47'0 0.0
2018-Jun-16 20:29N 36°48' W 121°47'0 0.0
2018-Jun-16 19:58N 36°48' W 121°47'0 0.0
2018-Jun-16 19:30N 36°48' W 121°47'0 0.0
2018-Jun-16 19:00N 36°48' W 121°47'0 0.0
2018-Jun-16 18:25N 36°48' W 121°47'0 0.0
2018-Jun-16 17:58N 36°48' W 121°47'0 0.0
2018-Jun-16 17:26N 36°48' W 121°47'0 0.0
2018-Jun-16 16:58N 36°48' W 121°47'0 0.0
2018-Jun-16 16:23N 36°48' W 121°47'0 0.0
2018-Jun-16 15:57N 36°48' W 121°47'0 0.0
2018-Jun-16 15:29N 36°48' W 121°47'0 0.0
2018-Jun-16 14:59N 36°48' W 121°47'0 0.0
2018-Jun-16 14:29N 36°48' W 121°47'0 0.0
2018-Jun-16 13:57N 36°48' W 121°47'0 0.0
2018-Jun-16 13:22N 36°48' W 121°47'0 0.0
2018-Jun-16 12:59N 36°48' W 121°47'0 0.0
2018-Jun-16 12:27N 36°48' W 121°47'0 0.0
2018-Jun-16 12:00N 36°48' W 121°47'0 0.0
2018-Jun-16 11:29N 36°48' W 121°47'0 0.0
2018-Jun-16 10:57N 36°48' W 121°47'0 0.0
2018-Jun-16 10:21N 36°48' W 121°47'0 0.0
2018-Jun-16 09:55N 36°48' W 121°47'0 0.0
2018-Jun-16 09:29N 36°48' W 121°47'0 0.0
2018-Jun-16 09:00N 36°48' W 121°47'0 0.0
2018-Jun-16 08:15N 36°48' W 121°47'0 0.0
2018-Jun-16 07:54N 36°48' W 121°47'0 0.0
2018-Jun-16 07:29N 36°48' W 121°47'0 0.0
2018-Jun-16 06:57N 36°48' W 121°47'0 0.0
2018-Jun-16 06:21N 36°48' W 121°47'0 0.0
2018-Jun-16 05:58N 36°48' W 121°47'0 0.0
2018-Jun-16 05:25N 36°48' W 121°47'0 0.0
2018-Jun-16 04:59N 36°48' W 121°47'0 0.0
2018-Jun-16 04:28N 36°48' W 121°47'0 0.0
2018-Jun-16 03:58N 36°48' W 121°47'0 0.0
2018-Jun-16 03:27N 36°48' W 121°47'0 0.0
2018-Jun-16 02:56N 36°48' W 121°47'0 0.0
2018-Jun-16 02:29N 36°48' W 121°47'0 0.0
2018-Jun-16 02:00N 36°48' W 121°47'0 0.0
2018-Jun-16 01:24N 36°48' W 121°47'0 0.0
2018-Jun-16 00:58N 36°48' W 121°47'0 0.0
2018-Jun-16 00:26N 36°48' W 121°47'0 0.0
2018-Jun-16 00:00N 36°48' W 121°47'0 0.0
2018-Jun-15 23:29N 36°48' W 121°47'0 0.0
2018-Jun-15 23:00N 36°48' W 121°47'0 0.0
2018-Jun-15 22:26N 36°48' W 121°47'0 0.0
2018-Jun-15 22:00N 36°48' W 121°47'0 0.0
2018-Jun-15 21:29N 36°48' W 121°47'0 0.0
2018-Jun-15 20:47N 36°48' W 121°47'0 0.0
2018-Jun-15 20:26N 36°48' W 121°47'0 0.0
2018-Jun-15 20:00N 36°48' W 121°47'0 0.0
2018-Jun-15 19:29N 36°48' W 121°47'0 0.0
2018-Jun-15 18:58N 36°48' W 121°47'0 0.0
2018-Jun-15 18:21N 36°48' W 121°47'0 0.0
2018-Jun-15 17:50N 36°48' W 121°47'0 0.0
2018-Jun-15 17:29N 36°48' W 121°47'0 0.0
2018-Jun-15 16:58N 36°48' W 121°47'0 0.0
2018-Jun-15 16:27N 36°48' W 121°47'0 0.0
2018-Jun-15 15:51N 36°48' W 121°47'0 0.0
2018-Jun-15 15:30N 36°48' W 121°47'0 0.0
2018-Jun-15 15:00N 36°48' W 121°47'0 0.0
2018-Jun-15 14:28N 36°48' W 121°47'0 0.0
2018-Jun-15 13:53N 36°48' W 121°47'0 0.0
2018-Jun-15 13:29N 36°48' W 121°47'0 0.0
2018-Jun-15 12:55N 36°48' W 121°47'0 0.0
2018-Jun-15 12:29N 36°48' W 121°47'0 0.0
2018-Jun-15 12:00N 36°48' W 121°47'0 0.0
2018-Jun-15 11:28N 36°48' W 121°47'0 0.0
2018-Jun-15 10:51N 36°48' W 121°47'0 0.0
2018-Jun-15 10:30N 36°48' W 121°47'0 0.0
2018-Jun-15 09:53N 36°48' W 121°47'0 0.0
2018-Jun-15 09:26N 36°48' W 121°47'0 0.0
2018-Jun-15 08:59N 36°48' W 121°47'0 0.0
2018-Jun-15 08:29N 36°48' W 121°47'0 0.0
2018-Jun-15 07:53N 36°48' W 121°47'0 0.0
2018-Jun-15 07:25N 36°48' W 121°47'0 0.0
2018-Jun-15 06:25N 36°48' W 121°47'0 0.0
2018-Jun-15 05:58N 36°48' W 121°47'0 0.0
2018-Jun-15 05:23N 36°48' W 121°47'0 0.0
2018-Jun-15 04:55N 36°48' W 121°47'0 0.0
2018-Jun-15 04:28N 36°48' W 121°47'0 0.0
2018-Jun-15 03:57N 36°48' W 121°47'0 0.0
2018-Jun-15 03:30N 36°48' W 121°47'0 0.0
2018-Jun-15 02:59N 36°48' W 121°47'0 0.0
2018-Jun-15 02:28N 36°48' W 121°47'0 0.0
2018-Jun-15 01:57N 36°48' W 121°47'0 0.0
2018-Jun-15 01:26N 36°48' W 121°47'0 0.0
2018-Jun-15 00:56N 36°48' W 121°47'0 0.0
2018-Jun-15 00:29N 36°48' W 121°47'0 0.0
2018-Jun-14 23:58N 36°48' W 121°47'0 0.0
2018-Jun-14 23:27N 36°48' W 121°47'0 0.0
2018-Jun-14 23:00N 36°48' W 121°47'0 0.0
2018-Jun-14 22:26N 36°48' W 121°47'0 0.0
2018-Jun-14 21:53N 36°48' W 121°47'0 0.0
2018-Jun-14 21:30N 36°48' W 121°47'0 0.0
2018-Jun-14 20:56N 36°48' W 121°47'0 0.0
2018-Jun-14 20:23N 36°48' W 121°47'0 0.0
2018-Jun-14 19:51N 36°48' W 121°47'0 0.0
2018-Jun-14 19:25N 36°48' W 121°47'0 0.0
2018-Jun-14 18:56N 36°48' W 121°47'0 0.0
2018-Jun-14 18:30N 36°48' W 121°47'0 0.0
2018-Jun-14 17:52N 36°48' W 121°47'0 0.0
2018-Jun-14 17:28N 36°48' W 121°47'0 0.0
2018-Jun-14 16:57N 36°48' W 121°47'0 0.0
2018-Jun-14 16:26N 36°48' W 121°47'0 0.0
2018-Jun-14 15:53N 36°48' W 121°47'0 0.0
2018-Jun-14 15:26N 36°48' W 121°47'0 0.0
2018-Jun-14 15:00N 36°48' W 121°47'0 0.0
2018-Jun-14 14:29N 36°48' W 121°47'0 0.0
2018-Jun-14 13:57N 36°48' W 121°47'0 0.0
2018-Jun-14 13:26N 36°48' W 121°47'0 0.0
2018-Jun-14 12:59N 36°48' W 121°47'0 0.0
2018-Jun-14 12:29N 36°48' W 121°47'0 0.0
2018-Jun-14 11:52N 36°48' W 121°47'0 0.0
2018-Jun-14 11:28N 36°48' W 121°47'0 0.0
2018-Jun-14 10:56N 36°48' W 121°47'0 0.0
2018-Jun-14 10:30N 36°48' W 121°47'0 0.0
2018-Jun-14 10:00N 36°48' W 121°47'0 0.0
2018-Jun-14 09:28N 36°48' W 121°47'0 0.0
2018-Jun-14 08:57N 36°48' W 121°47'0 0.0
2018-Jun-14 08:11N 36°48' W 121°47'0 0.0
2018-Jun-14 07:58N 36°48' W 121°47'0 0.0
2018-Jun-14 07:26N 36°48' W 121°47'0 0.0
2018-Jun-14 06:52N 36°48' W 121°47'0 0.0
2018-Jun-14 06:29N 36°48' W 121°47'0 0.0
2018-Jun-14 05:58N 36°48' W 121°47'0 0.0
2018-Jun-14 05:24N 36°48' W 121°47'0 0.0
2018-Jun-14 04:59N 36°48' W 121°47'0 0.0
2018-Jun-14 04:30N 36°48' W 121°47'0 0.0
2018-Jun-14 03:55N 36°48' W 121°47'0 0.0
2018-Jun-14 03:30N 36°48' W 121°47'0 0.0
2018-Jun-14 03:01N 36°48' W 121°47'0 0.0
2018-Jun-14 02:30N 36°48' W 121°47'0 0.0
2018-Jun-14 01:59N 36°48' W 121°47'0 0.0
2018-Jun-14 01:30N 36°48' W 121°47'0 0.0
2018-Jun-14 00:56N 36°48' W 121°47'0 0.0
2018-Jun-14 00:30N 36°48' W 121°47'0 0.0
2018-Jun-13 23:55N 36°48' W 121°47'0 0.0
2018-Jun-13 23:29N 36°48' W 121°47'0 0.0
2018-Jun-13 22:55N 36°48' W 121°47'0 0.0
2018-Jun-13 22:30N 36°48' W 121°47'0 0.0
2018-Jun-13 21:57N 36°48' W 121°47'0 0.0
2018-Jun-13 21:28N 36°48' W 121°47'0 0.0
2018-Jun-13 20:58N 36°48' W 121°47'0 0.0
2018-Jun-13 20:31N 36°48' W 121°47'0 0.0
2018-Jun-13 19:59N 36°48' W 121°47'0 0.0
2018-Jun-13 19:27N 36°48' W 121°47'0 0.0
2018-Jun-13 18:56N 36°48' W 121°47'0 0.0
2018-Jun-13 18:30N 36°48' W 121°47'0 0.0
2018-Jun-13 17:59N 36°48' W 121°47'0 0.0
2018-Jun-13 17:29N 36°48' W 121°47'0 0.0
2018-Jun-13 16:58N 36°48' W 121°47'0 0.0
2018-Jun-13 16:26N 36°48' W 121°47'0 0.0
2018-Jun-13 15:56N 36°48' W 121°47'0 0.0
2018-Jun-13 15:29N 36°48' W 121°47'0 0.0
2018-Jun-13 15:00N 36°48' W 121°47'0 0.0
2018-Jun-13 14:24N 36°48' W 121°47'0 0.0
2018-Jun-13 13:45N 36°48' W 121°47'0 0.0
2018-Jun-13 13:23N 36°48' W 121°47'0 0.0
2018-Jun-13 12:58N 36°48' W 121°47'0 0.0
2018-Jun-13 12:25N 36°48' W 121°47'0 0.0
2018-Jun-13 11:56N 36°48' W 121°47'0 0.0
2018-Jun-13 11:29N 36°48' W 121°47'0 0.0
2018-Jun-13 10:56N 36°48' W 121°47'0 0.0
2018-Jun-13 10:30N 36°48' W 121°47'0 0.0
2018-Jun-13 09:59N 36°48' W 121°47'0 0.0
2018-Jun-13 09:27N 36°48' W 121°47'0 0.0
2018-Jun-13 08:54N 36°48' W 121°47'0 0.0
2018-Jun-13 08:29N 36°48' W 121°47'0 0.0
2018-Jun-13 07:58N 36°48' W 121°47'0 0.0
2018-Jun-13 07:30N 36°48' W 121°47'0 0.0
2018-Jun-13 06:56N 36°48' W 121°47'0 0.0
2018-Jun-13 06:25N 36°48' W 121°47'0 0.0
2018-Jun-13 05:50N 36°48' W 121°47'0 0.0
2018-Jun-13 05:29N 36°48' W 121°47'0 0.0
2018-Jun-13 05:00N 36°48' W 121°47'0 0.0
2018-Jun-13 04:27N 36°48' W 121°47'0 0.0
2018-Jun-13 03:53N 36°48' W 121°47'0 0.0
2018-Jun-13 03:27N 36°48' W 121°47'0 0.0
2018-Jun-13 02:58N 36°48' W 121°47'0 0.0
2018-Jun-13 02:26N 36°48' W 121°47'0 0.0
2018-Jun-13 01:59N 36°48' W 121°47'0 0.0
2018-Jun-13 01:30N 36°48' W 121°47'0 0.0
2018-Jun-13 00:57N 36°48' W 121°47'0 0.0
2018-Jun-13 00:26N 36°48' W 121°47'0 0.0
2018-Jun-12 23:55N 36°48' W 121°47'0 0.0
2018-Jun-12 23:26N 36°48' W 121°47'0 0.0
2018-Jun-12 22:59N 36°48' W 121°47'0 0.0
2018-Jun-12 22:29N 36°48' W 121°47'0 0.0
2018-Jun-12 21:53N 36°48' W 121°47'0 0.0
2018-Jun-12 21:28N 36°48' W 121°47'0 0.0
2018-Jun-12 21:00N 36°48' W 121°47'0 0.0
2018-Jun-12 20:29N 36°48' W 121°47'0 0.0
2018-Jun-12 19:59N 36°48' W 121°47'0 0.0
2018-Jun-12 19:26N 36°48' W 121°47'  

Dump ship's entire track history